Flight Track Log - Related Links

Times and Time Zones

All times are in EDT time to prevent confusion due to time zone crossing. See the DAL3676 flight status page for this flight to view local times or setup timezone preferences in your user account.


Time Position Orientation Groundspeed Altitude Reporting Facility
EDT Latitude Longitude Course Direction KTS MPH feet Rate Location/Type
Wed 07:38:00 PM 34.7929 -87.1109 299° West  Level FlightAware Approximate
Wed 07:39:00 PM 34.8462 -87.2258 301° West  Level FlightAware Approximate
Wed 07:39:05 PM 34.6736 -86.9908 298° West 294 338 8,800  Level Memphis Center
Wed 07:40:00 PM 34.9026 -87.3386 301° West  Level FlightAware Approximate
Wed 07:40:05 PM 34.7178 -87.0778 302° West 294 338 10,600  Level Memphis Center
Wed 07:41:00 PM 34.9527 -87.4553 301° West  Level FlightAware Approximate
Wed 07:41:05 PM 34.7744 -87.1714 306° West 318 366 11,700  Level Memphis Center
Wed 07:42:00 PM 35.0077 -87.5692 296° West  Level FlightAware Approximate
Wed 07:42:05 PM 34.8733 -87.2058 344° North 331 381 13,300  Level Memphis Center
Wed 07:43:00 PM 35.0553 -87.6881 296° West  Level FlightAware Approximate
Wed 07:43:05 PM 34.9758 -87.2144 356° North 337 388 14,800  Level Memphis Center
Wed 07:44:00 PM 35.1049 -87.8057 298° West  Level FlightAware Approximate
Wed 07:44:05 PM 35.0822 -87.2106 North 357 411 16,300  Level Memphis Center
Wed 07:45:05 PM 35.1842 -87.2067 North 367 422 17,500 1,200 Climbing Memphis Center
Wed 07:46:05 PM 35.2925 -87.2028 North 372 428 18,700 1,100 Climbing Memphis Center
Wed 07:47:05 PM 35.4114 -87.2008 North 385 443 19,700 1,050 Climbing Memphis Center
Wed 07:48:05 PM 35.5219 -87.1964 North 390 449 20,800 900 Climbing Memphis Center
Wed 07:49:05 PM 35.6386 -87.1919 North 404 465 21,500 700 Climbing Memphis Center
Wed 07:50:05 PM 35.7406 -87.1881 North 404 465 22,200 700 Climbing Memphis Center
Wed 07:51:05 PM 35.8594 -87.1836 North 415 478 22,900 700 Climbing Memphis Center
Wed 07:52:05 PM 35.9781 -87.1789 North 425 489 23,600 700 Climbing Memphis Center
Wed 07:53:05 PM 36.1008 -87.1717 North 425 489 24,300 650 Climbing Memphis Center
Wed 07:54:05 PM 36.2300 -87.1692 North 425 489 24,900 550 Climbing Memphis Center
Wed 07:55:05 PM 36.3550 -87.1642 North 430 495 25,400 500 Climbing Memphis Center
Wed 07:56:05 PM 36.4800 -87.1592 North 440 506 25,900 500 Climbing Memphis Center
Wed 07:57:05 PM 36.6028 -87.1519 North 440 506 26,400 500 Climbing Memphis Center
Wed 07:58:05 PM 36.7278 -87.1469 North 440 506 26,900 184 Climbing Memphis Center
Wed 08:00:21 PM 37.0044 -87.1347 North 460 529 27,000 30 Climbing Indianapolis Center
Wed 08:01:23 PM 37.1350 -87.1297 North 463 533 27,000  Level Indianapolis Center
Wed 08:02:24 PM 37.2661 -87.1242 North 466 536 27,000  Level Indianapolis Center
Wed 08:03:26 PM 37.3942 -87.1175 North 458 527 27,000  Level Indianapolis Center
Wed 08:04:27 PM 37.5133 -87.0517 24° Northeast 458 527 27,000  Level Indianapolis Center
Wed 08:05:29 PM 37.6392 -86.9875 22° Northeast 458 527 27,000  Level Indianapolis Center
Wed 08:06:30 PM 37.7586 -86.9258 22° Northeast 461 531 27,000  Level Indianapolis Center
Wed 08:07:32 PM 37.8778 -86.8644 22° Northeast 462 532 27,000  Level Indianapolis Center
Wed 08:08:33 PM 37.9978 -86.8022 22° Northeast 466 536 27,000  Level Indianapolis Center
Wed 08:09:35 PM 38.1172 -86.7400 22° Northeast 467 537 27,000  Level Indianapolis Center
Wed 08:10:36 PM 38.2619 -86.6658 22° Northeast 470 541 27,000  Level Indianapolis Center
Wed 08:11:38 PM 38.3817 -86.6033 22° Northeast 470 541 27,000  Level Indianapolis Center
Wed 08:12:39 PM 38.5022 -86.5400 22° Northeast 469 540 27,000  Level Indianapolis Center
Wed 08:13:40 PM 38.6228 -86.4767 22° Northeast 470 541 27,000  Level Indianapolis Center
Wed 08:14:42 PM 38.7431 -86.4117 23° Northeast 470 541 27,000  Level Indianapolis Center
Wed 08:15:43 PM 38.8644 -86.3494 22° Northeast 469 540 27,000  Level Indianapolis Center
Wed 08:16:45 PM 38.9856 -86.2844 23° Northeast 470 541 27,000  Level Indianapolis Center
Wed 08:17:46 PM 39.1075 -86.2197 22° Northeast 472 543 27,000  Level Indianapolis Center
Wed 08:18:47 PM 39.2525 -86.1408 23° Northeast 471 542 27,000  Level Indianapolis Center
Wed 08:19:49 PM 39.3753 -86.0761 22° Northeast 472 543 27,000  Level Indianapolis Center
Wed 08:20:50 PM 39.4875 -85.9806 33° Northeast 482 555 27,000  Level Indianapolis Center
Wed 08:21:52 PM 39.5994 -85.8867 33° Northeast 479 551 27,000 -49 Level Indianapolis Center
Wed 08:22:53 PM 39.7178 -85.7858 33° Northeast 478 550 26,900  Descending Indianapolis Center
Wed 08:23:54 PM 39.8308 -85.6914 33° Northeast 479 551 27,000 49 Climbing Indianapolis Center
Wed 08:24:56 PM 39.9572 -85.6364 18° North 471 542 27,000  Level Indianapolis Center
Wed 08:25:57 PM 40.0817 -85.5800 19° North 468 539 27,000  Level Indianapolis Center
Wed 08:26:16 PM 40.1250 -85.5622 17° North 471 542 27,000  Level Chicago Center
Wed 08:27:18 PM 40.2472 -85.5081 19° North 467 537 27,000  Level Chicago Center
Wed 08:28:19 PM 40.3708 -85.4561 18° North 468 539 27,000 -541 Level Chicago Center
Wed 08:29:20 PM 40.4978 -85.4003 18° North 476 548 25,900 -1,073 Descending Chicago Center
Wed 08:30:22 PM 40.6214 -85.3450 19° North 475 547 24,800 -976 Descending Chicago Center
Wed 08:31:23 PM 40.7369 -85.2931 19° North 450 518 23,900 -934 Descending Chicago Center
Wed 08:32:24 PM 40.8508 -85.2428 18° North 437 503 22,900 -976 Descending Chicago Center
Wed 08:33:26 PM 40.9669 -85.1914 18° North 438 504 21,900 -927 Descending Chicago Center
Wed 08:34:27 PM 41.0903 -85.0667 37° Northeast 466 536 21,000 -443 Descending Chicago Center
Wed 08:35:28 PM 41.1917 -84.9594 38° Northeast 471 542 21,000  Level Chicago Center
Wed 08:36:30 PM 41.2947 -84.8483 39° Northeast 480 552 21,000  Level Chicago Center
Wed 08:37:31 PM 41.3994 -84.7353 39° Northeast 489 563 21,000 -689 Level Chicago Center
Wed 08:38:32 PM 41.5039 -84.6206 39° Northeast 492 566 19,600 -1,671 Descending Chicago Center
Wed 08:38:50 PM 41.5486 -84.5733 38° Northeast 478 550 18,800 -2,000 Descending Cleveland Center
Wed 08:39:50 PM 41.6481 -84.4656 39° Northeast 472 543 17,000 -1,900 Descending Cleveland Center
Wed 08:40:50 PM 41.7128 -84.3386 56° Northeast 426 490 15,000 -1,979 Descending Cleveland Center
Wed 08:41:24 PM 41.7361 -84.2678 66° East 389 448 13,900 -1,500 Descending Cleveland Center
Wed 08:41:50 PM 41.7519 -84.2294 61° Northeast 393 452 13,500 -1,592 Descending Cleveland Center
Wed 08:42:13 PM 41.7767 -84.1669 62° Northeast 353 406 12,600 -1,400 Descending Cleveland Center
Wed 08:42:50 PM 41.7950 -84.1122 66° East 361 415 12,100 -590 Descending Cleveland Center
Wed 08:43:14 PM 41.8175 -84.0578 61° Northeast 337 388 12,000 -100 Descending Cleveland Center
Wed 08:43:50 PM 41.8483 -84.0119 48° Northeast 339 390 12,000 -98 Level Cleveland Center
Wed 08:44:15 PM 41.8947 -83.9894 20° North 323 372 11,900 -400 Descending Cleveland Center
Wed 08:44:50 PM 41.9289 -83.9633 30° Northeast 312 359 11,600 -984 Descending Cleveland Center
Wed 08:45:16 PM 41.9714 -83.9375 24° Northeast 281 323 10,900 -1,200 Descending Cleveland Center
Wed 08:45:50 PM 42.0011 -83.9197 24° Northeast 291 335 10,400 -1,091 Descending Cleveland Center
Wed 08:46:11 PM 42.0350 -83.8989 25° Northeast 287 330 9,900 -1,200 Descending Cleveland Center
Wed 08:46:50 PM 42.0653 -83.8614 43° Northeast 279 321 9,200 -1,279 Descending Cleveland Center
Wed 08:47:12 PM 42.0583 -83.8106 100° East 262 302 8,600 -1,100 Descending Cleveland Center
Wed 08:47:50 PM 42.0494 -83.7600 103° East 220 253 8,100 -1,180 Descending Cleveland Center
Wed 08:48:13 PM 42.0275 -83.7253 130° Southeast 240 276 7,400 -1,100 Descending Cleveland Center
Wed 08:48:50 PM 41.9986 -83.7100 159° South 187 215 7,000 -436 Descending Cleveland Center
Wed 08:49:08 PM 41.9758 -83.7031 167° South 198 228 7,000 -400 Level Cleveland Center
Wed 08:49:50 PM 41.9492 -83.6906 161° South 177 204 6,600 -985 Descending Cleveland Center
Wed 08:50:15 PM 41.9331 -83.6675 133° Southeast 200 230 5,900 -1,200 Descending Cleveland Center
Wed 08:50:50 PM 41.9214 -83.6364 117° Southeast 172 198 5,400 -900 Descending Cleveland Center
Wed 08:51:15 PM 41.9369 -83.5953 63° Northeast 222 255 5,000 -300 Descending Cleveland Center
Wed 08:52:10 PM 41.9800 -83.5469 40° Northeast 224 258 5,000 -155 Level Cleveland Center
Wed 08:53:11 PM 42.0353 -83.5103 26° Northeast 217 250 4,700 -806 Descending Cleveland Center
Wed 08:54:24 PM 42.0967 -83.4656 28° Northeast 192 221 3,200 -1,233 Descending Cleveland Center

Login

Don't have an account? Register now (free) for customized features, flight alerts, and more!